createdAt,value
2018-12-23T00:02:09.942Z,68.50
2018-12-23T00:04:43.170Z,69.33
2018-12-23T00:07:15.746Z,70.07
2018-12-23T00:09:51.138Z,71.01
2018-12-23T00:12:26.217Z,71.45
2018-12-23T00:14:58.485Z,71.49
2018-12-23T00:17:28.959Z,71.26
2018-12-23T00:19:59.642Z,71.05
2018-12-23T00:22:44.374Z,71.50
2018-12-23T00:25:15.440Z,71.64
2018-12-23T00:27:46.372Z,71.77
2018-12-23T00:30:17.148Z,71.94
2018-12-23T00:32:50.179Z,72.26
2018-12-23T00:35:21.131Z,72.22
2018-12-23T00:37:54.115Z,72.12
2018-12-23T00:40:26.642Z,72.21
2018-12-23T00:42:58.442Z,72.11
2018-12-23T00:45:29.706Z,72.02
2018-12-23T00:48:00.437Z,71.80
2018-12-23T00:50:35.273Z,71.57
2018-12-23T00:53:07.321Z,71.68
2018-12-23T00:55:38.567Z,71.63
2018-12-23T00:58:09.181Z,71.19
2018-12-23T01:00:40.017Z,70.95
2018-12-23T01:03:10.733Z,71.02
2018-12-23T01:05:41.845Z,70.96
2018-12-23T01:08:12.645Z,70.76
2018-12-23T01:10:49.326Z,70.66
2018-12-23T01:13:22.941Z,70.41
2018-12-23T01:15:53.445Z,70.00
2018-12-23T01:18:25.070Z,70.28
2018-12-23T01:20:56.350Z,70.42
2018-12-23T01:23:28.689Z,70.11
2018-12-23T01:25:59.759Z,70.05
2018-12-23T01:28:31.635Z,70.08
2018-12-23T01:31:04.014Z,69.80
2018-12-23T01:33:45.602Z,70.23
2018-12-23T01:36:16.745Z,69.95
2018-12-23T01:38:47.894Z,70.00
2018-12-23T01:41:21.542Z,69.93
2018-12-23T01:43:54.775Z,70.20
2018-12-23T01:46:25.981Z,69.91
2018-12-23T01:48:58.985Z,69.85
2018-12-23T01:51:29.603Z,69.53
2018-12-23T01:54:03.596Z,69.61
2018-12-23T01:56:36.836Z,69.35
2018-12-23T01:59:10.935Z,69.33
2018-12-23T02:01:41.701Z,69.06
2018-12-23T02:04:12.849Z,69.43
2018-12-23T02:06:43.649Z,69.09
2018-12-23T02:09:14.524Z,69.19
2018-12-23T02:11:47.512Z,69.34
2018-12-23T02:14:19.004Z,69.59
2018-12-23T02:16:49.611Z,69.69
2018-12-23T02:19:21.010Z,69.54
2018-12-23T02:21:56.477Z,69.51
2018-12-23T02:24:28.159Z,69.66
2018-12-23T02:27:00.171Z,69.53
2018-12-23T02:29:33.195Z,69.58
2018-12-23T02:32:04.047Z,69.67
2018-12-23T02:34:34.722Z,69.23
2018-12-23T02:37:06.309Z,69.14
2018-12-23T02:39:37.171Z,68.82
2018-12-23T02:42:10.934Z,68.91
2018-12-23T02:44:45.247Z,68.81
2018-12-23T02:47:18.538Z,68.80
2018-12-23T02:49:50.958Z,68.49
2018-12-23T02:52:21.801Z,68.60
2018-12-23T02:54:53.043Z,68.39
2018-12-23T02:58:28.343Z,68.41
2018-12-23T03:01:19.315Z,68.49
2018-12-23T03:04:29.295Z,67.92
2018-12-23T03:07:13.380Z,68.31
2018-12-23T03:10:15.651Z,68.08
2018-12-23T03:18:37.021Z,68.03
2018-12-23T03:21:47.013Z,68.03
2018-12-23T03:24:56.982Z,68.02
2018-12-23T03:28:06.969Z,68.56
2018-12-23T03:33:43.769Z,69.12
2018-12-23T03:36:34.741Z,69.31
2018-12-23T03:42:09.804Z,70.03
2018-12-23T03:48:05.710Z,70.29
2018-12-23T03:51:15.706Z,70.71
2018-12-23T03:54:25.687Z,71.19
2018-12-23T03:57:16.709Z,71.57
2018-12-23T04:00:19.558Z,71.65
2018-12-23T04:03:13.181Z,71.64
2018-12-23T04:14:14.055Z,71.78
2018-12-23T04:17:05.218Z,71.85
2018-12-23T04:19:56.228Z,72.11
2018-12-23T04:25:35.606Z,72.35
2018-12-23T04:28:26.648Z,72.63
2018-12-23T04:36:46.023Z,72.76
2018-12-23T04:45:23.681Z,72.85
2018-12-23T04:48:45.041Z,72.88
2018-12-23T04:51:19.150Z,72.97
2018-12-23T04:54:10.221Z,73.00
2018-12-23T04:57:01.273Z,73.16
2018-12-23T05:16:53.323Z,72.33
2018-12-23T05:19:44.316Z,72.41
2018-12-23T05:23:13.561Z,72.32
2018-12-23T05:26:04.551Z,72.13
2018-12-23T05:28:55.594Z,72.29
2018-12-23T05:31:46.652Z,72.18
2018-12-23T05:41:01.169Z,72.61
2018-12-23T05:43:52.177Z,72.31
2018-12-23T05:49:30.697Z,71.53
2018-12-23T05:52:23.788Z,71.13
2018-12-23T05:55:35.397Z,70.93
2018-12-23T05:58:27.435Z,70.96
2018-12-23T06:04:20.272Z,70.92
2018-12-23T06:07:11.290Z,70.58
2018-12-23T06:13:07.490Z,70.24
2018-12-23T06:19:02.601Z,69.67
2018-12-23T06:24:37.101Z,69.39
2018-12-23T06:30:32.008Z,68.58
2018-12-23T06:33:43.772Z,68.14
2018-12-23T06:37:09.965Z,68.10
2018-12-23T06:45:23.366Z,67.20
2018-12-23T06:48:16.480Z,67.13
2018-12-23T06:54:09.552Z,66.80
2018-12-23T06:57:19.566Z,66.81
2018-12-23T07:00:22.535Z,66.45
2018-12-23T07:08:23.768Z,67.08
2018-12-23T07:13:57.795Z,67.96
2018-12-23T07:22:36.840Z,68.17
2018-12-23T07:28:32.774Z,68.73
2018-12-23T07:31:25.476Z,68.39
2018-12-23T07:42:51.878Z,67.39
2018-12-23T07:48:44.290Z,67.30
2018-12-23T07:51:54.271Z,67.46
2018-12-23T07:57:47.911Z,68.09
2018-12-23T08:09:10.853Z,68.75
2018-12-23T08:12:20.831Z,68.60
2018-12-23T08:15:16.006Z,68.49
2018-12-23T08:18:07.035Z,68.22
2018-12-23T08:20:58.035Z,67.94
2018-12-23T08:23:49.013Z,68.74
2018-12-23T08:29:42.818Z,68.79
2018-12-23T08:35:22.130Z,68.29
2018-12-23T08:38:13.119Z,68.10
2018-12-23T08:44:07.020Z,68.92
2018-12-23T08:47:17.005Z,68.21
2018-12-23T08:50:26.994Z,68.07
2018-12-23T08:59:04.332Z,68.97
2018-12-23T09:02:14.319Z,68.83
2018-12-23T09:05:18.691Z,68.37
2018-12-23T09:08:04.470Z,68.07
2018-12-23T09:14:04.027Z,67.29
2018-12-23T09:16:38.956Z,67.15
2018-12-23T09:22:02.098Z,66.67
2018-12-23T09:25:13.673Z,66.28
2018-12-23T09:28:43.360Z,66.35
2018-12-23T09:31:34.482Z,66.07
2018-12-23T09:37:28.259Z,67.09
2018-12-23T09:41:03.630Z,67.56
2018-12-23T09:44:32.810Z,67.53
2018-12-23T09:56:54.027Z,66.10
2018-12-23T09:59:45.729Z,65.92
2018-12-23T10:02:49.571Z,65.68
2018-12-23T10:11:52.490Z,65.52
2018-12-23T10:24:14.362Z,65.73
2018-12-23T10:27:06.313Z,66.03
2018-12-23T10:30:16.313Z,66.12
2018-12-23T10:32:59.634Z,65.72
2018-12-23T10:35:50.613Z,65.88
2018-12-23T10:38:56.165Z,64.48
2018-12-23T10:42:06.144Z,64.35
2018-12-23T10:45:16.141Z,64.71
2018-12-23T10:48:27.958Z,65.22
2018-12-23T10:51:28.873Z,64.63
2018-12-23T11:02:56.740Z,64.91
2018-12-23T11:05:52.452Z,64.99
2018-12-23T11:08:43.746Z,64.92
2018-12-23T11:11:34.755Z,64.73
2018-12-23T11:14:25.730Z,64.89
2018-12-23T11:17:16.725Z,64.35
2018-12-23T11:20:19.808Z,65.06
2018-12-23T11:22:51.819Z,64.61
2018-12-23T11:31:11.734Z,65.13
2018-12-23T11:34:02.421Z,64.33
2018-12-23T11:39:37.914Z,65.73
2018-12-23T11:42:47.890Z,65.55
2018-12-23T11:53:53.967Z,63.46
2018-12-23T11:56:44.952Z,62.52
2018-12-23T12:05:24.089Z,64.33
2018-12-23T12:10:58.168Z,63.58
2018-12-23T12:13:49.175Z,64.11
2018-12-23T12:19:42.956Z,64.65
2018-12-23T12:23:12.247Z,65.02
2018-12-23T12:26:22.234Z,64.75
2018-12-23T12:31:58.048Z,64.76
2018-12-23T12:38:10.737Z,65.43
2018-12-23T12:41:01.752Z,66.08
2018-12-23T12:43:52.811Z,65.89
2018-12-23T12:46:55.280Z,65.67
2018-12-23T12:52:31.311Z,66.57
2018-12-23T12:55:41.303Z,66.36
2018-12-23T13:03:59.271Z,65.62
2018-12-23T13:06:50.309Z,65.69
2018-12-23T13:17:52.964Z,65.15
2018-12-23T13:23:28.414Z,63.68
2018-12-23T13:29:05.386Z,64.91
2018-12-23T13:31:56.363Z,64.54
2018-12-23T13:37:51.444Z,64.58
2018-12-23T13:41:16.055Z,63.98
2018-12-23T13:44:27.420Z,64.79
2018-12-23T13:47:56.365Z,66.12
2018-12-23T13:51:25.323Z,66.88
2018-12-23T13:54:54.263Z,67.48
2018-12-23T13:58:23.269Z,66.70
2018-12-23T14:01:52.306Z,66.29
2018-12-23T14:05:21.258Z,67.35
2018-12-23T14:08:50.307Z,66.53
2018-12-23T14:12:00.264Z,66.66
2018-12-23T14:14:51.275Z,66.97
2018-12-23T14:18:02.393Z,66.50
2018-12-23T14:21:12.466Z,66.73
2018-12-23T14:24:13.395Z,66.45
2018-12-23T14:26:47.971Z,66.77
2018-12-23T14:29:39.090Z,66.06
2018-12-23T14:35:17.598Z,66.93
2018-12-23T14:46:20.750Z,64.72
2018-12-23T14:52:05.172Z,64.72
2018-12-23T14:57:39.697Z,64.44
2018-12-23T15:00:30.707Z,64.12
2018-12-23T15:03:21.681Z,64.03
2018-12-23T15:06:22.607Z,64.09
2018-12-23T15:14:45.925Z,64.67
2018-12-23T15:17:56.246Z,64.71
2018-12-23T15:23:51.765Z,65.25
2018-12-23T15:29:25.828Z,66.87
2018-12-23T15:32:16.846Z,66.17
2018-12-23T15:35:26.809Z,65.55
2018-12-23T15:38:17.796Z,65.65
2018-12-23T15:41:08.787Z,66.37
2018-12-23T15:43:59.903Z,66.25
2018-12-23T15:49:53.285Z,66.05
2018-12-23T15:52:44.285Z,66.23
2018-12-23T15:55:54.292Z,66.77
2018-12-23T16:01:28.994Z,67.08
2018-12-23T16:04:19.987Z,66.50
2018-12-23T16:09:54.543Z,66.68
2018-12-23T16:13:04.581Z,66.03
2018-12-23T16:16:14.609Z,65.77
2018-12-23T16:22:12.039Z,68.10
2018-12-23T16:27:28.052Z,66.65
2018-12-23T16:30:19.135Z,67.31
2018-12-23T16:33:10.031Z,67.17
2018-12-23T16:36:20.074Z,65.70
2018-12-23T16:39:11.099Z,66.15
2018-12-23T16:42:02.121Z,65.14
2018-12-23T16:44:52.760Z,66.21
2018-12-23T16:47:53.711Z,64.58
2018-12-23T16:53:09.186Z,64.88
2018-12-23T16:56:00.199Z,65.03
2018-12-23T16:59:10.206Z,67.07
2018-12-23T17:02:01.205Z,67.10
2018-12-23T17:05:30.166Z,67.94
2018-12-23T17:08:40.399Z,66.89
2018-12-23T17:19:26.911Z,68.03
2018-12-23T17:25:19.257Z,68.93
2018-12-23T17:31:14.472Z,68.13
2018-12-23T17:34:05.497Z,67.83
2018-12-23T17:36:56.484Z,66.90
2018-12-23T17:39:47.490Z,66.43
2018-12-23T17:42:57.803Z,67.11
2018-12-23T17:45:48.807Z,67.50
2018-12-23T17:51:43.452Z,67.62
2018-12-23T17:54:34.433Z,66.86
2018-12-23T17:57:16.693Z,66.46
2018-12-23T18:00:19.656Z,69.24
2018-12-23T18:11:06.415Z,72.59
2018-12-23T18:19:23.666Z,72.64
2018-12-23T18:28:03.596Z,73.17
2018-12-23T18:30:54.579Z,72.95
2018-12-23T18:37:08.411Z,74.30
2018-12-23T18:43:03.642Z,74.63
2018-12-23T18:45:54.621Z,76.38
2018-12-23T18:54:36.795Z,78.22
2018-12-23T19:03:38.762Z,79.94
2018-12-23T19:06:48.798Z,81.15
2018-12-23T19:10:17.740Z,82.36
2018-12-23T19:13:46.726Z,83.10
2018-12-23T19:17:00.588Z,84.08
2018-12-23T19:19:58.363Z,83.83
2018-12-23T19:23:13.935Z,84.38
2018-12-23T19:26:42.890Z,84.58
2018-12-23T19:33:27.433Z,84.83
2018-12-23T19:40:18.498Z,86.59
2018-12-23T19:43:47.451Z,86.18
2018-12-23T19:47:16.390Z,86.13
2018-12-23T19:50:25.988Z,85.65
2018-12-23T19:53:55.101Z,86.22
2018-12-23T19:57:06.177Z,84.39
2018-12-23T20:00:35.116Z,84.16
2018-12-23T20:03:44.746Z,82.62
2018-12-23T20:07:13.721Z,83.77
2018-12-23T20:10:42.698Z,85.25
2018-12-23T20:14:11.690Z,85.18
2018-12-23T20:17:40.634Z,85.15
2018-12-23T20:21:09.582Z,81.06
2018-12-23T20:24:38.516Z,77.31
2018-12-23T20:28:07.452Z,81.38
2018-12-23T20:31:36.419Z,81.63
2018-12-23T20:35:24.297Z,77.32
2018-12-23T20:38:21.985Z,73.67
2018-12-23T20:41:50.970Z,72.35
2018-12-23T20:45:00.563Z,73.42
2018-12-23T20:48:29.544Z,71.49
2018-12-23T20:51:58.547Z,70.77
2018-12-23T20:55:23.583Z,69.53
2018-12-23T20:58:42.949Z,69.29
2018-12-23T21:02:06.589Z,68.93
2018-12-23T21:05:35.616Z,68.32
2018-12-23T21:09:05.637Z,73.69
2018-12-23T21:12:21.280Z,82.48
2018-12-23T21:15:50.322Z,87.42
2018-12-23T21:19:12.363Z,88.06
2018-12-23T21:22:41.307Z,88.94
2018-12-23T21:26:10.257Z,89.75
2018-12-23T21:32:50.643Z,89.87
2018-12-23T21:36:15.858Z,89.69
2018-12-23T21:39:17.583Z,88.36
2018-12-23T21:46:10.488Z,86.67
2018-12-23T21:49:39.446Z,85.27
2018-12-23T21:53:09.009Z,85.22
2018-12-23T21:56:14.199Z,85.88
2018-12-23T21:59:43.412Z,86.48
2018-12-23T22:03:31.629Z,85.84
2018-12-23T22:07:00.667Z,85.55
2018-12-23T22:10:29.613Z,84.81
2018-12-23T22:13:39.602Z,85.77
2018-12-23T22:16:49.620Z,86.86
2018-12-23T22:19:59.589Z,86.19
2018-12-23T22:23:09.582Z,87.46
2018-12-23T22:26:32.102Z,88.20
2018-12-23T22:34:31.652Z,88.21
2018-12-23T22:37:41.640Z,88.00
2018-12-23T22:40:43.808Z,89.13
2018-12-23T22:46:18.735Z,88.82
2018-12-23T22:54:56.785Z,88.21
2018-12-23T23:03:36.801Z,91.49
2018-12-23T23:06:27.814Z,93.26
2018-12-23T23:12:21.276Z,94.35
2018-12-23T23:15:31.254Z,94.79
2018-12-23T23:23:47.850Z,94.37
2018-12-23T23:46:19.123Z,94.54
2018-12-23T23:49:29.108Z,93.75
2018-12-23T23:52:39.102Z,94.82
2018-12-23T23:55:30.062Z,94.41
